createdAt,value
2023-05-01T00:00:05.509Z,96.17
2023-05-01T00:02:34.257Z,99.11
2023-05-01T00:05:02.382Z,100.00
2023-05-01T00:07:31.102Z,100.00
2023-05-01T00:09:59.298Z,100.00
2023-05-01T00:12:28.744Z,100.00
2023-05-01T00:14:56.699Z,100.00
2023-05-01T00:17:24.708Z,100.00
2023-05-01T00:19:53.491Z,100.00
2023-05-01T00:22:21.502Z,100.00
2023-05-01T00:24:50.175Z,100.00
2023-05-01T00:27:18.088Z,100.00
2023-05-01T00:29:47.394Z,100.00
2023-05-01T00:32:15.718Z,100.00
2023-05-01T00:34:43.768Z,100.00
2023-05-01T00:37:12.026Z,100.00
2023-05-01T00:39:39.927Z,100.00
2023-05-01T00:42:07.904Z,100.00
2023-05-01T00:44:36.007Z,100.00
2023-05-01T00:47:05.318Z,100.00
2023-05-01T00:49:33.302Z,99.73
2023-05-01T00:52:01.946Z,100.00
2023-05-01T00:54:30.098Z,100.00
2023-05-01T00:56:58.428Z,100.00
2023-05-01T00:59:26.320Z,99.90
2023-05-01T01:01:56.317Z,99.92
2023-05-01T01:04:26.182Z,98.81
2023-05-01T01:07:02.625Z,97.85
2023-05-01T01:09:39.889Z,97.27
2023-05-01T01:12:17.096Z,96.91
2023-05-01T01:14:52.084Z,96.89
2023-05-01T01:17:31.771Z,96.55
2023-05-01T01:20:20.410Z,98.03
2023-05-01T01:22:54.342Z,98.24
2023-05-01T01:25:57.050Z,97.29
2023-05-01T01:28:40.907Z,96.94
2023-05-01T01:31:15.421Z,97.39
2023-05-01T01:33:56.151Z,97.54
2023-05-01T01:36:34.860Z,99.46
2023-05-01T01:39:08.670Z,99.99
2023-05-01T01:41:38.246Z,100.00
2023-05-01T01:44:13.469Z,100.00
2023-05-01T01:46:43.889Z,100.00
2023-05-01T01:49:20.975Z,98.92
2023-05-01T01:51:51.196Z,98.58
2023-05-01T01:54:23.357Z,99.22
2023-05-01T01:56:52.822Z,98.82
2023-05-01T01:59:22.785Z,99.32
2023-05-01T02:01:54.332Z,100.00
2023-05-01T02:04:24.757Z,100.00
2023-05-01T02:06:53.583Z,99.67
2023-05-01T02:09:23.152Z,99.23
2023-05-01T02:11:53.067Z,98.83
2023-05-01T02:14:23.641Z,99.24
2023-05-01T02:16:52.250Z,98.60
2023-05-01T02:19:21.633Z,97.92
2023-05-01T02:21:51.528Z,97.86
2023-05-01T02:24:22.790Z,98.91
2023-05-01T02:27:01.414Z,98.66
2023-05-01T02:29:29.427Z,100.00
2023-05-01T02:31:57.505Z,100.00
2023-05-01T02:34:25.788Z,100.00
2023-05-01T02:36:55.074Z,100.00
2023-05-01T02:39:23.539Z,100.00
2023-05-01T02:41:53.900Z,100.00
2023-05-01T02:44:23.643Z,100.00
2023-05-01T02:46:54.753Z,100.00
2023-05-01T02:49:23.892Z,100.00
2023-05-01T02:51:52.461Z,100.00
2023-05-01T02:54:22.613Z,100.00
2023-05-01T02:56:50.537Z,100.00
2023-05-01T02:59:18.433Z,100.00
2023-05-01T03:01:46.731Z,100.00
2023-05-01T03:04:14.733Z,100.00
2023-05-01T03:06:44.618Z,100.00
2023-05-01T03:09:12.869Z,100.00
2023-05-01T03:11:42.151Z,100.00
2023-05-01T03:14:11.272Z,100.00
2023-05-01T03:16:39.400Z,100.00
2023-05-01T03:19:07.317Z,100.00
2023-05-01T03:21:35.228Z,100.00
2023-05-01T03:24:03.362Z,100.00
2023-05-01T03:26:31.418Z,100.00
2023-05-01T03:29:00.690Z,100.00
2023-05-01T03:31:29.276Z,100.00
2023-05-01T03:33:57.188Z,100.00
2023-05-01T03:36:25.146Z,100.00
2023-05-01T03:38:53.027Z,100.00
2023-05-01T03:41:21.520Z,100.00
2023-05-01T03:43:50.506Z,100.00
2023-05-01T03:46:19.867Z,100.00
2023-05-01T03:48:47.827Z,100.00
2023-05-01T03:51:17.262Z,100.00
2023-05-01T03:53:45.152Z,100.00
2023-05-01T03:56:13.096Z,100.00
2023-05-01T03:58:41.132Z,100.00
2023-05-01T04:01:09.055Z,100.00
2023-05-01T04:03:38.572Z,100.00
2023-05-01T04:06:06.863Z,100.00
2023-05-01T04:08:35.007Z,100.00
2023-05-01T04:11:02.918Z,100.00
2023-05-01T04:13:31.112Z,100.00
2023-05-01T04:15:59.531Z,100.00
2023-05-01T04:18:27.493Z,100.00
2023-05-01T04:20:56.831Z,100.00
2023-05-01T04:23:24.878Z,100.00
2023-05-01T04:25:52.818Z,100.00
2023-05-01T04:28:20.712Z,100.00
2023-05-01T04:30:48.727Z,100.00
2023-05-01T04:33:16.615Z,100.00
2023-05-01T04:35:44.540Z,100.00
2023-05-01T04:38:13.842Z,100.00
2023-05-01T04:40:41.827Z,99.23
2023-05-01T04:43:09.738Z,99.15
2023-05-01T04:45:39.015Z,94.96
2023-05-01T04:48:07.590Z,93.12
2023-05-01T04:50:35.531Z,91.27
2023-05-01T04:53:03.524Z,90.33
2023-05-01T04:55:32.846Z,91.56
2023-05-01T04:58:00.745Z,91.13
2023-05-01T05:00:28.626Z,91.72
2023-05-01T05:02:56.680Z,89.87
2023-05-01T05:05:24.609Z,90.05
2023-05-01T05:07:52.495Z,91.61
2023-05-01T05:10:20.690Z,90.69
2023-05-01T05:12:49.963Z,88.57
2023-05-01T05:15:18.080Z,88.03
2023-05-01T05:17:46.549Z,85.90
2023-05-01T05:20:15.531Z,85.96
2023-05-01T05:22:43.427Z,85.64
2023-05-01T05:25:11.330Z,86.56
2023-05-01T05:27:39.245Z,85.37
2023-05-01T05:30:10.432Z,84.77
2023-05-01T05:32:38.577Z,81.28
2023-05-01T05:35:07.489Z,78.11
2023-05-01T05:37:35.389Z,80.59
2023-05-01T05:40:03.343Z,82.05
2023-05-01T05:42:31.337Z,77.89
2023-05-01T05:44:59.203Z,75.96
2023-05-01T05:47:28.490Z,75.89
2023-05-01T05:49:56.792Z,77.81
2023-05-01T05:52:24.887Z,75.53
2023-05-01T05:54:52.783Z,77.00
2023-05-01T05:57:20.668Z,76.47
2023-05-01T05:59:48.616Z,76.09
2023-05-01T06:02:16.586Z,71.57
2023-05-01T06:04:46.185Z,74.84
2023-05-01T06:07:14.094Z,83.52
2023-05-01T06:09:42.014Z,83.67
2023-05-01T06:12:10.139Z,84.82
2023-05-01T06:14:38.072Z,82.86
2023-05-01T06:17:07.359Z,86.19
2023-05-01T06:19:35.326Z,82.72
2023-05-01T06:22:04.590Z,77.74
2023-05-01T06:24:32.744Z,74.77
2023-05-01T06:27:01.695Z,72.67
2023-05-01T06:29:29.650Z,71.45
2023-05-01T06:31:57.620Z,66.69
2023-05-01T06:34:25.645Z,65.92
2023-05-01T06:36:53.610Z,66.70
2023-05-01T06:39:22.943Z,68.00
2023-05-01T06:41:50.885Z,67.17
2023-05-01T06:44:18.822Z,64.18
2023-05-01T06:46:46.794Z,65.30
2023-05-01T06:49:14.730Z,60.48
2023-05-01T06:51:42.667Z,61.36
2023-05-01T06:54:10.621Z,62.50
2023-05-01T06:56:39.888Z,64.25
2023-05-01T06:59:07.795Z,63.43
2023-05-01T07:01:35.873Z,63.99
2023-05-01T07:04:04.408Z,60.19
2023-05-01T07:06:32.653Z,61.28
2023-05-01T07:09:00.677Z,58.99
2023-05-01T07:11:28.685Z,56.50
2023-05-01T07:13:58.011Z,58.59
2023-05-01T07:16:26.093Z,55.89
2023-05-01T07:18:55.147Z,54.63
2023-05-01T07:21:23.045Z,55.52
2023-05-01T07:23:50.965Z,52.54
2023-05-01T07:26:19.715Z,53.63
2023-05-01T07:28:47.639Z,56.15
2023-05-01T07:31:17.061Z,54.75
2023-05-01T07:33:47.671Z,56.30
2023-05-01T07:36:15.571Z,57.64
2023-05-01T07:38:43.472Z,55.74
2023-05-01T07:41:11.345Z,56.52
2023-05-01T07:43:39.298Z,55.01
2023-05-01T07:46:07.277Z,53.59
2023-05-01T07:48:38.718Z,50.42
2023-05-01T07:51:07.132Z,52.72
2023-05-01T07:53:35.182Z,51.44
2023-05-01T07:56:07.593Z,52.11
2023-05-01T07:58:36.149Z,53.16
2023-05-01T08:01:04.415Z,50.29
2023-05-01T08:03:32.841Z,49.65
2023-05-01T08:06:02.300Z,50.17
2023-05-01T08:08:30.221Z,50.76
2023-05-01T08:10:58.134Z,46.90
2023-05-01T08:13:26.081Z,49.09
2023-05-01T08:15:54.123Z,47.46
2023-05-01T08:18:22.103Z,49.94
2023-05-01T08:20:50.720Z,49.09
2023-05-01T08:23:20.193Z,48.70
2023-05-01T08:25:50.991Z,47.97
2023-05-01T08:28:20.765Z,49.87
2023-05-01T08:30:50.377Z,47.68
2023-05-01T08:33:18.353Z,45.41
2023-05-01T08:35:46.282Z,47.49
2023-05-01T08:38:14.203Z,47.11
2023-05-01T08:40:48.404Z,46.63
2023-05-01T08:43:16.734Z,46.06
2023-05-01T08:45:45.822Z,47.36
2023-05-01T08:48:14.830Z,49.29
2023-05-01T08:50:47.478Z,46.68
2023-05-01T08:53:18.596Z,49.91
2023-05-01T08:55:49.519Z,45.24
2023-05-01T08:58:19.669Z,44.46
2023-05-01T09:00:48.753Z,43.88
2023-05-01T09:03:17.961Z,44.62
2023-05-01T09:05:46.642Z,41.90
2023-05-01T09:08:14.675Z,42.17
2023-05-01T09:10:49.388Z,43.90
2023-05-01T09:13:17.761Z,43.87
2023-05-01T09:15:45.823Z,44.07
2023-05-01T09:18:14.010Z,45.22
2023-05-01T09:20:42.685Z,44.17
2023-05-01T09:23:10.855Z,42.75
2023-05-01T09:25:39.149Z,44.85
2023-05-01T09:28:08.751Z,45.68
2023-05-01T09:30:38.198Z,44.50
2023-05-01T09:33:10.710Z,43.68
2023-05-01T09:35:53.288Z,43.89
2023-05-01T09:38:25.397Z,43.76
2023-05-01T09:40:58.124Z,42.31
2023-05-01T09:43:28.756Z,41.72
2023-05-01T09:46:05.372Z,39.49
2023-05-01T09:48:35.772Z,42.54
2023-05-01T09:51:21.637Z,42.48
2023-05-01T09:53:49.680Z,43.95
2023-05-01T09:56:18.056Z,43.20
2023-05-01T09:58:47.833Z,43.23
2023-05-01T10:01:16.759Z,43.08
2023-05-01T10:03:46.141Z,42.72
2023-05-01T10:06:27.487Z,41.78
2023-05-01T10:08:55.806Z,43.43
2023-05-01T10:11:24.093Z,43.88
2023-05-01T10:14:09.779Z,43.47
2023-05-01T10:16:39.396Z,46.46
2023-05-01T10:19:07.830Z,42.19
2023-05-01T10:21:36.413Z,41.86
2023-05-01T10:24:05.917Z,43.26
2023-05-01T10:26:34.518Z,41.28
2023-05-01T10:29:03.843Z,37.39
2023-05-01T10:31:33.798Z,38.17
2023-05-01T10:34:02.754Z,37.95
2023-05-01T10:36:37.556Z,36.21
2023-05-01T10:39:05.604Z,39.44
2023-05-01T10:42:11.165Z,36.06
2023-05-01T10:44:39.286Z,34.29
2023-05-01T10:47:49.003Z,36.14
2023-05-01T10:50:17.549Z,35.51
2023-05-01T10:53:19.896Z,33.65
2023-05-01T10:55:49.562Z,36.26
2023-05-01T10:58:51.970Z,35.91
2023-05-01T11:01:30.863Z,35.57
2023-05-01T11:04:01.313Z,32.36
2023-05-01T11:06:29.602Z,32.76
2023-05-01T11:08:58.693Z,32.91
2023-05-01T11:11:50.090Z,32.66
2023-05-01T11:14:18.637Z,32.85
2023-05-01T11:16:48.940Z,32.73
2023-05-01T11:19:52.545Z,31.72
2023-05-01T11:22:20.502Z,32.29
2023-05-01T11:24:49.000Z,33.02
2023-05-01T11:27:18.398Z,32.91
2023-05-01T11:29:49.725Z,32.35
2023-05-01T11:32:25.023Z,34.34
2023-05-01T11:34:55.329Z,36.08
2023-05-01T11:37:41.022Z,34.02
2023-05-01T11:40:20.803Z,33.85
2023-05-01T11:42:48.896Z,34.48
2023-05-01T11:45:16.860Z,34.75
2023-05-01T11:47:44.819Z,35.10
2023-05-01T11:50:14.180Z,36.25
2023-05-01T11:52:46.656Z,34.49
2023-05-01T11:55:14.761Z,34.45
2023-05-01T11:57:53.217Z,34.04
2023-05-01T12:00:28.837Z,33.63
2023-05-01T12:02:59.569Z,34.40
2023-05-01T12:05:30.438Z,37.25
2023-05-01T12:08:10.028Z,34.64
2023-05-01T12:10:39.293Z,34.07
2023-05-01T12:13:08.903Z,34.05
2023-05-01T12:15:38.287Z,32.02
2023-05-01T12:18:07.051Z,33.36
2023-05-01T12:20:41.452Z,31.50
2023-05-01T12:23:11.013Z,30.40
2023-05-01T12:25:39.826Z,29.37
2023-05-01T12:28:13.192Z,31.28
2023-05-01T12:30:41.793Z,33.35
2023-05-01T12:33:11.634Z,32.94
2023-05-01T12:35:42.235Z,31.33
2023-05-01T12:38:14.304Z,33.28
2023-05-01T12:40:51.472Z,33.88
2023-05-01T12:43:20.094Z,33.41
2023-05-01T12:45:52.730Z,32.77
2023-05-01T12:48:21.437Z,33.61
2023-05-01T12:50:54.889Z,34.14
2023-05-01T12:53:23.468Z,30.21
2023-05-01T12:55:53.393Z,31.65
2023-05-01T12:58:21.568Z,31.79
2023-05-01T13:00:52.452Z,32.13
2023-05-01T13:03:25.818Z,33.52
2023-05-01T13:05:57.722Z,33.43
2023-05-01T13:08:31.374Z,32.48
2023-05-01T13:11:00.194Z,30.83
2023-05-01T13:13:30.133Z,31.84
2023-05-01T13:16:10.491Z,30.81
2023-05-01T13:18:45.982Z,32.14
2023-05-01T13:21:17.274Z,30.67
2023-05-01T13:23:54.477Z,33.54
2023-05-01T13:26:27.805Z,29.87
2023-05-01T13:28:57.232Z,29.71
2023-05-01T13:31:25.448Z,30.23
2023-05-01T13:33:55.507Z,30.56
2023-05-01T13:36:27.109Z,32.52
2023-05-01T13:38:57.130Z,32.75
2023-05-01T13:41:26.703Z,31.67
2023-05-01T13:43:56.518Z,30.58
2023-05-01T13:46:26.195Z,32.13
2023-05-01T13:48:54.538Z,31.53
2023-05-01T13:51:25.738Z,33.93
2023-05-01T13:53:54.574Z,31.82
2023-05-01T13:56:22.875Z,31.90
2023-05-01T13:58:51.295Z,32.02
2023-05-01T14:01:20.827Z,30.65
2023-05-01T14:03:50.033Z,31.70
2023-05-01T14:06:19.781Z,31.45
2023-05-01T14:08:50.138Z,30.85
2023-05-01T14:11:18.251Z,31.89
2023-05-01T14:13:49.607Z,30.88
2023-05-01T14:16:25.079Z,31.52
2023-05-01T14:18:57.016Z,32.10
2023-05-01T14:21:28.431Z,30.89
2023-05-01T14:23:58.388Z,32.12
2023-05-01T14:26:26.335Z,31.37
2023-05-01T14:28:54.694Z,31.12
2023-05-01T14:31:27.546Z,31.68
2023-05-01T14:33:57.968Z,32.33
2023-05-01T14:36:26.642Z,31.67
2023-05-01T14:38:58.829Z,32.41
2023-05-01T14:41:26.912Z,31.34
2023-05-01T14:43:54.952Z,33.23
2023-05-01T14:46:31.441Z,32.23
2023-05-01T14:49:00.343Z,32.70
2023-05-01T14:51:29.273Z,30.98
2023-05-01T14:53:58.594Z,32.00
2023-05-01T14:56:26.489Z,32.64
2023-05-01T14:58:54.404Z,33.42
2023-05-01T15:01:22.415Z,33.60
2023-05-01T15:03:50.445Z,33.21
2023-05-01T15:06:18.460Z,33.81
2023-05-01T15:08:46.941Z,32.75
2023-05-01T15:11:18.090Z,33.88
2023-05-01T15:13:46.284Z,32.87
2023-05-01T15:16:14.242Z,32.79
2023-05-01T15:18:42.200Z,32.92
2023-05-01T15:21:10.136Z,33.48
2023-05-01T15:23:38.174Z,33.47
2023-05-01T15:26:06.128Z,33.90
2023-05-01T15:28:36.519Z,33.84
2023-05-01T15:31:04.468Z,33.08
2023-05-01T15:33:32.535Z,31.60
2023-05-01T15:36:00.560Z,31.38
2023-05-01T15:38:28.559Z,31.51
2023-05-01T15:40:56.884Z,32.09
2023-05-01T15:43:24.820Z,33.25
2023-05-01T15:45:57.769Z,31.72
2023-05-01T15:48:26.061Z,31.03
2023-05-01T15:50:53.984Z,32.39
2023-05-01T15:53:22.457Z,32.66
2023-05-01T15:55:50.375Z,32.92
2023-05-01T15:58:19.092Z,31.54
2023-05-01T16:00:48.317Z,31.81
2023-05-01T16:03:19.690Z,33.13
2023-05-01T16:05:47.944Z,32.53
2023-05-01T16:08:15.901Z,32.57
2023-05-01T16:10:43.876Z,32.41
2023-05-01T16:13:12.092Z,31.67
2023-05-01T16:15:40.321Z,32.99
2023-05-01T16:18:09.348Z,33.09
2023-05-01T16:20:42.655Z,33.77
2023-05-01T16:23:10.745Z,33.14
2023-05-01T16:25:43.262Z,33.86
2023-05-01T16:28:11.405Z,33.62
2023-05-01T16:30:42.975Z,34.30
2023-05-01T16:33:18.416Z,34.98
2023-05-01T16:35:49.919Z,36.55
2023-05-01T16:38:18.691Z,36.86
2023-05-01T16:40:48.089Z,36.55
2023-05-01T16:43:16.036Z,35.66
2023-05-01T16:45:43.947Z,35.59
2023-05-01T16:48:12.259Z,37.33
2023-05-01T16:50:42.303Z,37.23
2023-05-01T16:53:11.610Z,36.85
2023-05-01T16:55:39.530Z,36.93
2023-05-01T16:58:08.034Z,36.41
2023-05-01T17:00:35.964Z,38.19
2023-05-01T17:03:04.156Z,37.90
2023-05-01T17:05:32.200Z,38.98
2023-05-01T17:08:00.127Z,41.49
2023-05-01T17:10:29.433Z,42.66
2023-05-01T17:12:57.317Z,43.39
2023-05-01T17:15:25.198Z,46.01
2023-05-01T17:17:53.122Z,46.21
2023-05-01T17:20:21.378Z,47.35
2023-05-01T17:22:49.328Z,48.83
2023-05-01T17:25:17.418Z,50.21
2023-05-01T17:27:46.679Z,51.44
2023-05-01T17:30:14.608Z,51.64
2023-05-01T17:32:43.171Z,55.54
2023-05-01T17:35:11.359Z,56.94
2023-05-01T17:37:39.940Z,57.87
2023-05-01T17:40:11.080Z,58.22
2023-05-01T17:42:39.073Z,59.63
2023-05-01T17:45:10.431Z,59.54
2023-05-01T17:47:41.666Z,58.92
2023-05-01T17:50:12.009Z,57.88
2023-05-01T17:52:40.098Z,58.63
2023-05-01T17:55:08.866Z,60.70
2023-05-01T17:57:37.054Z,59.49
2023-05-01T18:00:05.770Z,59.28
2023-05-01T18:02:35.217Z,59.54
2023-05-01T18:05:03.297Z,60.01
2023-05-01T18:07:31.609Z,60.13
2023-05-01T18:10:00.297Z,60.01
2023-05-01T18:12:29.447Z,61.25
2023-05-01T18:14:57.379Z,61.03
2023-05-01T18:17:25.319Z,61.78
2023-05-01T18:19:54.986Z,61.84
2023-05-01T18:22:22.909Z,62.06
2023-05-01T18:24:50.823Z,62.23
2023-05-01T18:27:18.939Z,62.44
2023-05-01T18:29:46.836Z,61.93
2023-05-01T18:32:14.756Z,63.82
2023-05-01T18:34:42.855Z,63.76
2023-05-01T18:37:12.138Z,64.61
2023-05-01T18:39:40.049Z,63.63
2023-05-01T18:42:08.719Z,64.59
2023-05-01T18:44:36.678Z,64.22
2023-05-01T18:47:05.219Z,63.91
2023-05-01T18:49:33.143Z,63.77
2023-05-01T18:52:01.028Z,63.67
2023-05-01T18:54:31.426Z,63.50
2023-05-01T18:56:59.317Z,62.23
2023-05-01T18:59:30.986Z,62.65
2023-05-01T19:01:59.061Z,63.02
2023-05-01T19:04:27.039Z,62.92
2023-05-01T19:06:55.009Z,61.56
2023-05-01T19:09:22.992Z,63.54
2023-05-01T19:11:52.277Z,63.46
2023-05-01T19:14:21.445Z,63.57
2023-05-01T19:16:49.638Z,66.39
2023-05-01T19:19:17.600Z,63.80
2023-05-01T19:21:45.588Z,66.43
2023-05-01T19:24:13.513Z,65.54
2023-05-01T19:26:41.441Z,66.25
2023-05-01T19:29:11.271Z,67.62
2023-05-01T19:31:39.295Z,64.81
2023-05-01T19:34:07.444Z,63.83
2023-05-01T19:36:35.403Z,67.71
2023-05-01T19:39:04.418Z,64.64
2023-05-01T19:41:33.323Z,67.19
2023-05-01T19:44:01.315Z,66.62
2023-05-01T19:46:30.689Z,66.21
2023-05-01T19:48:58.639Z,65.69
2023-05-01T19:51:26.603Z,67.45
2023-05-01T19:53:54.510Z,66.81
2023-05-01T19:56:23.211Z,64.84
2023-05-01T19:58:51.117Z,66.01
2023-05-01T20:01:19.046Z,66.60
2023-05-01T20:03:48.534Z,68.58
2023-05-01T20:06:16.456Z,67.98
2023-05-01T20:08:44.485Z,65.65
2023-05-01T20:11:12.737Z,66.60
2023-05-01T20:13:40.719Z,69.57
2023-05-01T20:16:09.646Z,67.50
2023-05-01T20:18:37.858Z,64.80
2023-05-01T20:21:07.906Z,67.00
2023-05-01T20:23:36.119Z,63.38
2023-05-01T20:26:04.760Z,67.86
2023-05-01T20:28:32.727Z,63.68
2023-05-01T20:31:00.828Z,65.68
2023-05-01T20:33:28.734Z,63.84
2023-05-01T20:35:56.649Z,65.77
2023-05-01T20:38:25.914Z,63.80
2023-05-01T20:40:53.855Z,63.80
2023-05-01T20:43:21.828Z,64.75
2023-05-01T20:45:49.747Z,64.46
2023-05-01T20:48:17.696Z,64.99
2023-05-01T20:50:47.573Z,63.82
2023-05-01T20:53:15.501Z,64.48
2023-05-01T20:55:44.797Z,65.59
2023-05-01T20:58:12.730Z,64.50
2023-05-01T21:00:40.644Z,66.59
2023-05-01T21:03:09.480Z,66.50
2023-05-01T21:05:37.505Z,65.85
2023-05-01T21:08:05.427Z,64.98
2023-05-01T21:10:33.443Z,65.17
2023-05-01T21:13:02.896Z,65.04
2023-05-01T21:15:31.977Z,65.06
2023-05-01T21:18:00.152Z,64.06
2023-05-01T21:20:32.577Z,64.69
2023-05-01T21:23:01.221Z,66.87
2023-05-01T21:25:31.965Z,67.34
2023-05-01T21:28:02.166Z,68.87
2023-05-01T21:30:33.683Z,68.92
2023-05-01T21:33:01.884Z,67.99
2023-05-01T21:35:30.827Z,67.09
2023-05-01T21:37:59.076Z,68.97
2023-05-01T21:40:27.968Z,68.03
2023-05-01T21:42:56.406Z,67.86
2023-05-01T21:45:25.579Z,68.67
2023-05-01T21:47:54.945Z,71.07
2023-05-01T21:50:22.884Z,68.39
2023-05-01T21:52:51.243Z,68.81
2023-05-01T21:55:21.356Z,67.76
2023-05-01T21:57:50.730Z,67.04
2023-05-01T22:00:19.389Z,68.24
2023-05-01T22:02:48.588Z,67.13
2023-05-01T22:05:19.688Z,68.25
2023-05-01T22:07:48.411Z,67.54
2023-05-01T22:10:18.679Z,67.80
2023-05-01T22:12:48.826Z,68.47
2023-05-01T22:15:17.108Z,67.02
2023-05-01T22:17:45.640Z,66.34
2023-05-01T22:20:13.754Z,68.35
2023-05-01T22:22:43.784Z,67.16
2023-05-01T22:25:13.181Z,68.11
2023-05-01T22:27:41.500Z,66.40
2023-05-01T22:30:10.336Z,66.66
2023-05-01T22:32:38.288Z,66.31
2023-05-01T22:35:08.409Z,66.95
2023-05-01T22:37:36.344Z,66.76
2023-05-01T22:40:07.092Z,65.80
2023-05-01T22:42:35.069Z,67.15
2023-05-01T22:45:02.982Z,66.95
2023-05-01T22:47:31.027Z,65.92
2023-05-01T22:49:59.216Z,67.52
2023-05-01T22:52:27.253Z,67.10
2023-05-01T22:54:56.163Z,66.62
2023-05-01T22:57:25.663Z,64.61
2023-05-01T22:59:53.576Z,66.54
2023-05-01T23:02:21.606Z,66.63
2023-05-01T23:04:49.624Z,65.91
2023-05-01T23:07:17.761Z,67.43
2023-05-01T23:09:46.734Z,66.33
2023-05-01T23:12:19.984Z,67.48
2023-05-01T23:14:49.356Z,67.92
2023-05-01T23:17:17.352Z,67.59
2023-05-01T23:19:46.985Z,67.24
2023-05-01T23:22:15.005Z,69.04
2023-05-01T23:24:44.963Z,69.03
2023-05-01T23:27:15.560Z,69.15
2023-05-01T23:29:49.052Z,70.69
2023-05-01T23:32:24.999Z,69.68
2023-05-01T23:34:53.946Z,69.90
2023-05-01T23:37:22.158Z,69.39
2023-05-01T23:39:50.060Z,70.23
2023-05-01T23:42:18.009Z,70.19
2023-05-01T23:44:45.938Z,71.76
2023-05-01T23:47:13.941Z,70.92
2023-05-01T23:49:43.349Z,69.73
2023-05-01T23:52:11.538Z,71.30
2023-05-01T23:54:39.458Z,71.15
2023-05-01T23:57:07.400Z,72.46
2023-05-01T23:59:35.745Z,72.22
